Sandown, New Hampshire
Current Conditions -  °F | °C
As of 2:53 PM on Thursday 30 Oct 2014 (Local Time) from KMHT Reporting Station
Broken Clouds Broken Clouds  
Wind Chill: 54°   Ceiling: 6500
Heat Index: 54°   Visibility: 10mi
Dew Point: 37°   Wind: 8mph
Humidity: 53%   Direction: 340°NNW
Pressure: 29.9"   Gusts: NA
Location:  42.93°N, 71.19°W
Report Text: KMHT 301853Z 34007KT 10SM FEW045 BKN065 12/03 A2990 RMK AO2 SLP141 T01220028
Loading
Personal Weather Stations






























Interactive Weather Map
Tropical Storm Tracking
New forecast layout! Learn more

10-Day Weather Forecast

Advertisements
Track Severe Weather on mobile